sensor_id;sensor_type;location;lat;lon;timestamp;pressure;altitude;pressure_sealevel;temperature;humidity
5380;BME280;2713;42.680;23.310;2023-06-22T00:01:19;95473.72;;;23.13;65.77
5380;BME280;2713;42.680;23.310;2023-06-22T00:03:49;95478.84;;;23.20;65.80
5380;BME280;2713;42.680;23.310;2023-06-22T00:06:16;95477.63;;;23.28;65.60
5380;BME280;2713;42.680;23.310;2023-06-22T00:08:42;95472.34;;;23.33;65.50
5380;BME280;2713;42.680;23.310;2023-06-22T00:11:09;95466.81;;;23.12;65.98
5380;BME280;2713;42.680;23.310;2023-06-22T00:13:37;95474.16;;;23.05;66.07
5380;BME280;2713;42.680;23.310;2023-06-22T00:16:04;95471.81;;;23.09;65.69
5380;BME280;2713;42.680;23.310;2023-06-22T00:18:31;95472.00;;;22.81;66.63
5380;BME280;2713;42.680;23.310;2023-06-22T00:20:59;95466.34;;;22.94;66.42
5380;BME280;2713;42.680;23.310;2023-06-22T00:23:26;95461.56;;;22.96;66.23
5380;BME280;2713;42.680;23.310;2023-06-22T00:25:53;95464.28;;;22.79;66.87
5380;BME280;2713;42.680;23.310;2023-06-22T00:28:20;95454.34;;;22.91;66.67
5380;BME280;2713;42.680;23.310;2023-06-22T00:30:48;95444.69;;;23.02;66.55
5380;BME280;2713;42.680;23.310;2023-06-22T00:33:15;95452.59;;;22.97;66.56
5380;BME280;2713;42.680;23.310;2023-06-22T00:35:42;95444.81;;;22.90;67.03
5380;BME280;2713;42.680;23.310;2023-06-22T00:38:11;95451.78;;;22.96;66.97
5380;BME280;2713;42.680;23.310;2023-06-22T00:40:38;95445.66;;;22.96;66.83
5380;BME280;2713;42.680;23.310;2023-06-22T00:43:05;95443.09;;;23.01;66.90
5380;BME280;2713;42.680;23.310;2023-06-22T00:45:32;95444.06;;;22.95;67.03
5380;BME280;2713;42.680;23.310;2023-06-22T00:47:59;95447.16;;;22.87;67.45
5380;BME280;2713;42.680;23.310;2023-06-22T00:50:28;95454.13;;;22.93;67.45
5380;BME280;2713;42.680;23.310;2023-06-22T00:53:00;95452.81;;;22.73;67.85
5380;BME280;2713;42.680;23.310;2023-06-22T00:55:29;95457.97;;;22.63;68.18
5380;BME280;2713;42.680;23.310;2023-06-22T00:57:56;95457.66;;;22.60;68.47
5380;BME280;2713;42.680;23.310;2023-06-22T01:00:24;95450.59;;;22.49;68.77
5380;BME280;2713;42.680;23.310;2023-06-22T01:02:53;95452.13;;;22.45;68.74
5380;BME280;2713;42.680;23.310;2023-06-22T01:05:21;95468.34;;;22.48;69.01
5380;BME280;2713;42.680;23.310;2023-06-22T01:08:06;95466.44;;;22.65;68.74
5380;BME280;2713;42.680;23.310;2023-06-22T01:10:41;95465.50;;;22.71;68.64
5380;BME280;2713;42.680;23.310;2023-06-22T01:13:16;95454.91;;;22.55;68.88
5380;BME280;2713;42.680;23.310;2023-06-22T01:15:46;95459.00;;;22.62;68.09
5380;BME280;2713;42.680;23.310;2023-06-22T01:18:17;95462.16;;;22.43;68.69
5380;BME280;2713;42.680;23.310;2023-06-22T01:20:45;95448.03;;;22.20;68.94
5380;BME280;2713;42.680;23.310;2023-06-22T01:23:20;95456.22;;;22.36;69.06
5380;BME280;2713;42.680;23.310;2023-06-22T01:26:02;95461.53;;;22.36;69.08
5380;BME280;2713;42.680;23.310;2023-06-22T01:28:44;95462.81;;;22.50;69.20
5380;BME280;2713;42.680;23.310;2023-06-22T01:34:05;95469.69;;;22.51;69.25
5380;BME280;2713;42.680;23.310;2023-06-22T01:36:35;95475.31;;;22.38;69.43
5380;BME280;2713;42.680;23.310;2023-06-22T01:39:03;95474.22;;;22.17;69.88
5380;BME280;2713;42.680;23.310;2023-06-22T01:41:34;95474.38;;;22.27;69.78
5380;BME280;2713;42.680;23.310;2023-06-22T01:44:04;95483.22;;;22.33;69.56
5380;BME280;2713;42.680;23.310;2023-06-22T01:46:33;95480.97;;;22.08;70.45
5380;BME280;2713;42.680;23.310;2023-06-22T01:49:01;95483.94;;;22.11;70.54
5380;BME280;2713;42.680;23.310;2023-06-22T01:51:28;95480.63;;;22.21;70.54
5380;BME280;2713;42.680;23.310;2023-06-22T01:53:59;95489.94;;;22.07;70.85
5380;BME280;2713;42.680;23.310;2023-06-22T01:56:26;95484.00;;;22.16;70.48
5380;BME280;2713;42.680;23.310;2023-06-22T01:59:01;95487.28;;;22.23;70.42
5380;BME280;2713;42.680;23.310;2023-06-22T02:01:38;95486.16;;;22.03;71.03
5380;BME280;2713;42.680;23.310;2023-06-22T02:04:13;95498.03;;;22.17;70.63
5380;BME280;2713;42.680;23.310;2023-06-22T02:06:43;95502.22;;;22.30;70.40
5380;BME280;2713;42.680;23.310;2023-06-22T02:09:15;95501.97;;;22.31;70.27
5380;BME280;2713;42.680;23.310;2023-06-22T02:11:45;95503.34;;;22.00;71.19
5380;BME280;2713;42.680;23.310;2023-06-22T02:14:13;95503.16;;;22.07;70.99
5380;BME280;2713;42.680;23.310;2023-06-22T02:16:43;95495.94;;;22.02;71.06
5380;BME280;2713;42.680;23.310;2023-06-22T02:19:10;95483.47;;;21.86;71.62
5380;BME280;2713;42.680;23.310;2023-06-22T02:21:37;95489.78;;;21.97;71.08
5380;BME280;2713;42.680;23.310;2023-06-22T02:24:04;95485.56;;;21.84;70.12
5380;BME280;2713;42.680;23.310;2023-06-22T02:26:31;95490.69;;;21.74;70.25
5380;BME280;2713;42.680;23.310;2023-06-22T02:29:01;95485.78;;;21.83;69.17
5380;BME280;2713;42.680;23.310;2023-06-22T02:31:28;95483.63;;;21.80;68.96
5380;BME280;2713;42.680;23.310;2023-06-22T02:33:57;95482.38;;;21.99;67.98
5380;BME280;2713;42.680;23.310;2023-06-22T02:36:24;95482.38;;;21.99;67.06
5380;BME280;2713;42.680;23.310;2023-06-22T02:38:52;95489.34;;;21.88;67.65
5380;BME280;2713;42.680;23.310;2023-06-22T02:41:21;95493.38;;;21.91;67.76
5380;BME280;2713;42.680;23.310;2023-06-22T02:43:48;95495.88;;;21.86;67.58
5380;BME280;2713;42.680;23.310;2023-06-22T02:46:18;95487.59;;;21.65;67.99
5380;BME280;2713;42.680;23.310;2023-06-22T02:48:46;95485.19;;;21.36;69.21
5380;BME280;2713;42.680;23.310;2023-06-22T02:51:14;95486.41;;;21.45;69.14
5380;BME280;2713;42.680;23.310;2023-06-22T02:53:41;95495.81;;;21.52;68.46
5380;BME280;2713;42.680;23.310;2023-06-22T02:56:11;95488.22;;;21.56;68.76
5380;BME280;2713;42.680;23.310;2023-06-22T02:58:38;95489.88;;;21.73;68.32
5380;BME280;2713;42.680;23.310;2023-06-22T03:01:09;95495.34;;;21.84;67.80
5380;BME280;2713;42.680;23.310;2023-06-22T03:03:40;95498.03;;;21.72;68.47
5380;BME280;2713;42.680;23.310;2023-06-22T03:06:06;95488.84;;;21.46;69.58
5380;BME280;2713;42.680;23.310;2023-06-22T03:08:35;95496.53;;;21.48;69.98
5380;BME280;2713;42.680;23.310;2023-06-22T03:11:02;95496.13;;;21.67;69.23
5380;BME280;2713;42.680;23.310;2023-06-22T03:13:29;95496.31;;;21.78;69.27
5380;BME280;2713;42.680;23.310;2023-06-22T03:15:56;95510.09;;;21.80;69.03
5380;BME280;2713;42.680;23.310;2023-06-22T03:18:23;95512.34;;;21.88;69.20
5380;BME280;2713;42.680;23.310;2023-06-22T03:20:50;95512.25;;;21.83;69.19
5380;BME280;2713;42.680;23.310;2023-06-22T03:23:17;95522.31;;;21.69;69.92
5380;BME280;2713;42.680;23.310;2023-06-22T03:25:45;95521.16;;;21.77;69.81
5380;BME280;2713;42.680;23.310;2023-06-22T03:28:13;95521.09;;;21.88;69.43
5380;BME280;2713;42.680;23.310;2023-06-22T03:30:40;95514.34;;;21.81;69.41
5380;BME280;2713;42.680;23.310;2023-06-22T03:33:07;95518.56;;;21.82;69.63
5380;BME280;2713;42.680;23.310;2023-06-22T03:35:34;95527.19;;;21.89;69.46
5380;BME280;2713;42.680;23.310;2023-06-22T03:38:01;95529.81;;;21.89;69.57
5380;BME280;2713;42.680;23.310;2023-06-22T03:40:29;95527.78;;;21.91;69.63
5380;BME280;2713;42.680;23.310;2023-06-22T03:42:58;95528.34;;;21.93;69.60
5380;BME280;2713;42.680;23.310;2023-06-22T03:45:24;95532.72;;;21.87;69.95
5380;BME280;2713;42.680;23.310;2023-06-22T03:47:51;95538.72;;;21.94;69.63
5380;BME280;2713;42.680;23.310;2023-06-22T03:50:18;95537.91;;;21.94;69.42
5380;BME280;2713;42.680;23.310;2023-06-22T03:52:46;95551.16;;;21.82;70.23
5380;BME280;2713;42.680;23.310;2023-06-22T03:55:12;95548.34;;;21.89;70.01
5380;BME280;2713;42.680;23.310;2023-06-22T03:57:39;95542.88;;;21.90;69.44
5380;BME280;2713;42.680;23.310;2023-06-22T04:00:09;95545.59;;;21.95;69.19
5380;BME280;2713;42.680;23.310;2023-06-22T04:02:40;95541.75;;;21.74;69.87
5380;BME280;2713;42.680;23.310;2023-06-22T04:05:08;95551.22;;;21.70;70.29
5380;BME280;2713;42.680;23.310;2023-06-22T04:07:35;95536.41;;;21.58;70.56
5380;BME280;2713;42.680;23.310;2023-06-22T04:10:02;95553.38;;;21.73;70.05
5380;BME280;2713;42.680;23.310;2023-06-22T04:12:29;95541.09;;;21.67;70.13
5380;BME280;2713;42.680;23.310;2023-06-22T04:14:56;95528.97;;;21.71;70.06
5380;BME280;2713;42.680;23.310;2023-06-22T04:17:24;95528.13;;;21.83;69.75
5380;BME280;2713;42.680;23.310;2023-06-22T04:19:51;95525.38;;;22.06;69.07
5380;BME280;2713;42.680;23.310;2023-06-22T04:22:18;95526.53;;;22.10;69.08
5380;BME280;2713;42.680;23.310;2023-06-22T04:24:45;95522.28;;;22.09;69.12
5380;BME280;2713;42.680;23.310;2023-06-22T04:27:11;95513.28;;;21.82;70.25
5380;BME280;2713;42.680;23.310;2023-06-22T04:29:38;95516.50;;;22.12;69.56
5380;BME280;2713;42.680;23.310;2023-06-22T04:32:14;95513.38;;;22.48;68.14
5380;BME280;2713;42.680;23.310;2023-06-22T04:34:42;95511.91;;;22.91;66.15
5380;BME280;2713;42.680;23.310;2023-06-22T04:37:09;95523.28;;;23.08;65.78
5380;BME280;2713;42.680;23.310;2023-06-22T04:39:41;95520.03;;;23.06;65.40
5380;BME280;2713;42.680;23.310;2023-06-22T04:42:08;95525.47;;;23.16;64.41
5380;BME280;2713;42.680;23.310;2023-06-22T04:44:34;95516.63;;;23.49;63.55
5380;BME280;2713;42.680;23.310;2023-06-22T04:47:01;95520.66;;;23.78;62.86
5380;BME280;2713;42.680;23.310;2023-06-22T04:49:29;95516.88;;;24.01;61.70
5380;BME280;2713;42.680;23.310;2023-06-22T04:52:01;95523.56;;;24.03;61.42
5380;BME280;2713;42.680;23.310;2023-06-22T04:54:28;95531.56;;;24.35;60.17
5380;BME280;2713;42.680;23.310;2023-06-22T04:56:58;95541.38;;;24.61;59.74
5380;BME280;2713;42.680;23.310;2023-06-22T04:59:26;95537.44;;;24.69;59.02
5380;BME280;2713;42.680;23.310;2023-06-22T05:01:55;95535.94;;;24.83;59.03
5380;BME280;2713;42.680;23.310;2023-06-22T05:04:22;95539.50;;;24.99;58.78
5380;BME280;2713;42.680;23.310;2023-06-22T05:06:50;95538.31;;;25.27;57.34
5380;BME280;2713;42.680;23.310;2023-06-22T05:09:18;95529.69;;;25.56;56.32
5380;BME280;2713;42.680;23.310;2023-06-22T05:11:45;95536.41;;;25.74;56.47
5380;BME280;2713;42.680;23.310;2023-06-22T05:14:13;95540.94;;;25.68;55.75
5380;BME280;2713;42.680;23.310;2023-06-22T05:16:41;95528.13;;;25.76;55.53
5380;BME280;2713;42.680;23.310;2023-06-22T05:19:08;95530.53;;;25.72;55.72
5380;BME280;2713;42.680;23.310;2023-06-22T05:21:35;95514.56;;;25.77;55.26
5380;BME280;2713;42.680;23.310;2023-06-22T05:24:02;95526.41;;;26.27;54.52
5380;BME280;2713;42.680;23.310;2023-06-22T05:26:31;95538.41;;;26.49;53.55
5380;BME280;2713;42.680;23.310;2023-06-22T05:28:59;95533.88;;;26.60;53.07
5380;BME280;2713;42.680;23.310;2023-06-22T05:31:26;95527.19;;;26.72;52.30
5380;BME280;2713;42.680;23.310;2023-06-22T05:33:54;95537.88;;;26.52;53.21
5380;BME280;2713;42.680;23.310;2023-06-22T05:36:21;95547.22;;;26.95;52.23
5380;BME280;2713;42.680;23.310;2023-06-22T05:38:51;95542.66;;;26.86;51.92
5380;BME280;2713;42.680;23.310;2023-06-22T05:41:18;95554.94;;;26.92;51.84
5380;BME280;2713;42.680;23.310;2023-06-22T05:43:46;95558.13;;;27.04;51.81
5380;BME280;2713;42.680;23.310;2023-06-22T05:46:13;95558.13;;;26.99;51.96
5380;BME280;2713;42.680;23.310;2023-06-22T05:48:40;95557.56;;;27.12;51.86
5380;BME280;2713;42.680;23.310;2023-06-22T05:51:07;95560.25;;;27.07;51.83
5380;BME280;2713;42.680;23.310;2023-06-22T05:53:33;95557.47;;;27.52;50.81
5380;BME280;2713;42.680;23.310;2023-06-22T05:56:00;95558.19;;;27.68;50.26
5380;BME280;2713;42.680;23.310;2023-06-22T05:58:27;95565.38;;;27.78;50.01
5380;BME280;2713;42.680;23.310;2023-06-22T06:00:55;95560.13;;;27.57;50.17
5380;BME280;2713;42.680;23.310;2023-06-22T06:03:22;95557.44;;;27.57;50.41
5380;BME280;2713;42.680;23.310;2023-06-22T06:05:49;95558.31;;;27.28;50.68
5380;BME280;2713;42.680;23.310;2023-06-22T06:08:16;95546.59;;;27.29;50.61
5380;BME280;2713;42.680;23.310;2023-06-22T06:10:42;95553.19;;;27.56;50.40
5380;BME280;2713;42.680;23.310;2023-06-22T06:13:09;95552.31;;;27.71;49.88
5380;BME280;2713;42.680;23.310;2023-06-22T06:15:36;95538.50;;;27.54;50.39
5380;BME280;2713;42.680;23.310;2023-06-22T06:18:06;95539.16;;;27.85;49.88
5380;BME280;2713;42.680;23.310;2023-06-22T06:20:33;95540.81;;;28.25;49.32
5380;BME280;2713;42.680;23.310;2023-06-22T06:23:01;95544.56;;;28.57;48.91
5380;BME280;2713;42.680;23.310;2023-06-22T06:25:28;95536.47;;;28.67;48.90
5380;BME280;2713;42.680;23.310;2023-06-22T06:27:55;95536.38;;;28.78;47.78
5380;BME280;2713;42.680;23.310;2023-06-22T06:30:22;95539.75;;;28.93;47.83
5380;BME280;2713;42.680;23.310;2023-06-22T06:32:50;95544.31;;;29.16;47.39
5380;BME280;2713;42.680;23.310;2023-06-22T06:35:18;95543.97;;;29.28;47.14
5380;BME280;2713;42.680;23.310;2023-06-22T06:37:48;95534.66;;;29.44;46.33
5380;BME280;2713;42.680;23.310;2023-06-22T06:40:16;95529.69;;;29.56;45.70
5380;BME280;2713;42.680;23.310;2023-06-22T06:42:44;95526.41;;;29.12;47.10
5380;BME280;2713;42.680;23.310;2023-06-22T06:45:11;95516.38;;;28.70;47.52
5380;BME280;2713;42.680;23.310;2023-06-22T06:47:39;95516.84;;;28.43;48.36
5380;BME280;2713;42.680;23.310;2023-06-22T06:50:07;95520.19;;;28.30;49.21
5380;BME280;2713;42.680;23.310;2023-06-22T06:52:35;95519.25;;;28.06;49.49
5380;BME280;2713;42.680;23.310;2023-06-22T06:55:03;95515.53;;;27.53;50.64
5380;BME280;2713;42.680;23.310;2023-06-22T06:57:33;95517.25;;;27.13;52.04
5380;BME280;2713;42.680;23.310;2023-06-22T07:00:00;95517.41;;;27.47;51.89
5380;BME280;2713;42.680;23.310;2023-06-22T07:02:27;95508.09;;;28.38;49.50
5380;BME280;2713;42.680;23.310;2023-06-22T07:04:54;95507.66;;;29.12;47.54
5380;BME280;2713;42.680;23.310;2023-06-22T07:07:23;95505.22;;;29.63;46.70
5380;BME280;2713;42.680;23.310;2023-06-22T07:09:51;95510.00;;;29.90;45.76
5380;BME280;2713;42.680;23.310;2023-06-22T07:12:18;95515.53;;;29.93;45.74
5380;BME280;2713;42.680;23.310;2023-06-22T07:14:45;95509.88;;;30.32;44.79
5380;BME280;2713;42.680;23.310;2023-06-22T07:17:12;95512.09;;;30.62;43.42
5380;BME280;2713;42.680;23.310;2023-06-22T07:19:39;95509.94;;;30.64;43.71
5380;BME280;2713;42.680;23.310;2023-06-22T07:22:07;95516.13;;;30.79;43.31
5380;BME280;2713;42.680;23.310;2023-06-22T07:24:34;95508.97;;;30.88;44.23
5380;BME280;2713;42.680;23.310;2023-06-22T07:27:03;95513.06;;;30.85;43.59
5380;BME280;2713;42.680;23.310;2023-06-22T07:29:32;95507.38;;;30.87;42.59
5380;BME280;2713;42.680;23.310;2023-06-22T07:31:58;95504.06;;;31.08;42.07
5380;BME280;2713;42.680;23.310;2023-06-22T07:34:26;95509.25;;;31.18;42.25
5380;BME280;2713;42.680;23.310;2023-06-22T07:36:53;95507.75;;;30.80;42.52
5380;BME280;2713;42.680;23.310;2023-06-22T07:39:20;95514.28;;;30.60;43.04
5380;BME280;2713;42.680;23.310;2023-06-22T07:41:51;95515.50;;;30.68;43.27
5380;BME280;2713;42.680;23.310;2023-06-22T07:44:23;95516.69;;;30.76;42.60
5380;BME280;2713;42.680;23.310;2023-06-22T07:46:52;95514.28;;;31.20;42.46
5380;BME280;2713;42.680;23.310;2023-06-22T07:49:20;95514.91;;;31.17;42.41
5380;BME280;2713;42.680;23.310;2023-06-22T07:51:46;95518.00;;;31.51;42.84
5380;BME280;2713;42.680;23.310;2023-06-22T07:54:13;95515.28;;;31.24;42.68
5380;BME280;2713;42.680;23.310;2023-06-22T07:56:41;95510.97;;;30.50;44.15
5380;BME280;2713;42.680;23.310;2023-06-22T07:59:08;95516.69;;;30.76;43.43
5380;BME280;2713;42.680;23.310;2023-06-22T08:01:37;95496.22;;;30.80;43.91
5380;BME280;2713;42.680;23.310;2023-06-22T08:04:04;95509.31;;;30.16;45.81
5380;BME280;2713;42.680;23.310;2023-06-22T08:06:31;95492.19;;;29.75;46.80
5380;BME280;2713;42.680;23.310;2023-06-22T08:08:58;95500.59;;;30.89;44.58
5380;BME280;2713;42.680;23.310;2023-06-22T08:11:25;95490.84;;;31.89;42.44
5380;BME280;2713;42.680;23.310;2023-06-22T08:13:51;95486.03;;;32.13;41.78
5380;BME280;2713;42.680;23.310;2023-06-22T08:16:21;95482.81;;;30.93;44.05
5380;BME280;2713;42.680;23.310;2023-06-22T08:18:49;95487.69;;;30.45;45.43
5380;BME280;2713;42.680;23.310;2023-06-22T08:21:16;95487.66;;;30.13;46.41
5380;BME280;2713;42.680;23.310;2023-06-22T08:23:43;95486.41;;;30.89;44.70
5380;BME280;2713;42.680;23.310;2023-06-22T08:26:10;95471.81;;;31.49;43.15
5380;BME280;2713;42.680;23.310;2023-06-22T08:28:36;95477.78;;;31.05;43.63
5380;BME280;2713;42.680;23.310;2023-06-22T08:31:03;95477.56;;;30.88;44.60
5380;BME280;2713;42.680;23.310;2023-06-22T08:33:30;95479.84;;;30.49;44.64
5380;BME280;2713;42.680;23.310;2023-06-22T08:35:58;95478.09;;;30.39;44.08
5380;BME280;2713;42.680;23.310;2023-06-22T08:38:25;95484.56;;;30.38;44.31
5380;BME280;2713;42.680;23.310;2023-06-22T08:40:52;95480.22;;;30.42;45.01
5380;BME280;2713;42.680;23.310;2023-06-22T08:43:19;95476.84;;;30.83;44.62
5380;BME280;2713;42.680;23.310;2023-06-22T08:45:46;95477.19;;;31.63;42.42
5380;BME280;2713;42.680;23.310;2023-06-22T08:48:13;95486.25;;;31.40;42.69
5380;BME280;2713;42.680;23.310;2023-06-22T08:50:40;95473.97;;;31.88;41.48
5380;BME280;2713;42.680;23.310;2023-06-22T08:53:08;95480.28;;;32.06;39.99
5380;BME280;2713;42.680;23.310;2023-06-22T08:55:35;95471.28;;;32.55;39.93
5380;BME280;2713;42.680;23.310;2023-06-22T08:58:02;95468.81;;;32.58;38.45
5380;BME280;2713;42.680;23.310;2023-06-22T09:00:30;95462.25;;;32.51;38.57
5380;BME280;2713;42.680;23.310;2023-06-22T09:03:00;95466.94;;;32.67;37.69
5380;BME280;2713;42.680;23.310;2023-06-22T09:05:26;95455.28;;;32.28;39.90
5380;BME280;2713;42.680;23.310;2023-06-22T09:07:53;95458.88;;;32.67;38.89
5380;BME280;2713;42.680;23.310;2023-06-22T09:10:22;95453.06;;;32.74;37.40
5380;BME280;2713;42.680;23.310;2023-06-22T09:12:49;95456.44;;;32.35;37.88
5380;BME280;2713;42.680;23.310;2023-06-22T09:15:16;95451.47;;;32.51;39.10
5380;BME280;2713;42.680;23.310;2023-06-22T09:17:43;95456.81;;;32.42;39.29
5380;BME280;2713;42.680;23.310;2023-06-22T09:20:11;95454.56;;;32.36;39.57
5380;BME280;2713;42.680;23.310;2023-06-22T09:22:39;95454.72;;;32.17;38.74
5380;BME280;2713;42.680;23.310;2023-06-22T09:25:06;95459.75;;;31.96;39.90
5380;BME280;2713;42.680;23.310;2023-06-22T09:27:34;95457.44;;;31.81;39.71
5380;BME280;2713;42.680;23.310;2023-06-22T09:30:01;95450.19;;;31.68;39.63
5380;BME280;2713;42.680;23.310;2023-06-22T09:32:29;95462.47;;;31.60;39.87
5380;BME280;2713;42.680;23.310;2023-06-22T09:34:56;95465.69;;;31.85;39.64
5380;BME280;2713;42.680;23.310;2023-06-22T09:37:23;95460.84;;;31.73;38.85
5380;BME280;2713;42.680;23.310;2023-06-22T09:39:49;95466.44;;;31.49;39.05
5380;BME280;2713;42.680;23.310;2023-06-22T09:42:16;95458.78;;;31.56;39.32
5380;BME280;2713;42.680;23.310;2023-06-22T09:44:44;95464.72;;;31.81;39.64
5380;BME280;2713;42.680;23.310;2023-06-22T09:47:11;95450.66;;;31.84;39.82
5380;BME280;2713;42.680;23.310;2023-06-22T09:49:38;95455.31;;;31.92;39.56
5380;BME280;2713;42.680;23.310;2023-06-22T09:52:06;95450.78;;;31.65;39.05
5380;BME280;2713;42.680;23.310;2023-06-22T09:54:32;95440.53;;;31.67;39.75
5380;BME280;2713;42.680;23.310;2023-06-22T09:56:59;95441.91;;;31.78;39.75
5380;BME280;2713;42.680;23.310;2023-06-22T09:59:26;95442.50;;;31.75;39.39
5380;BME280;2713;42.680;23.310;2023-06-22T10:01:54;95443.72;;;31.69;39.83
5380;BME280;2713;42.680;23.310;2023-06-22T10:04:21;95447.03;;;31.52;39.85
5380;BME280;2713;42.680;23.310;2023-06-22T10:06:48;95437.75;;;31.45;38.91
5380;BME280;2713;42.680;23.310;2023-06-22T10:09:15;95434.69;;;31.38;40.41
5380;BME280;2713;42.680;23.310;2023-06-22T10:11:43;95433.19;;;31.45;39.44
5380;BME280;2713;42.680;23.310;2023-06-22T10:14:09;95430.81;;;31.57;39.35
5380;BME280;2713;42.680;23.310;2023-06-22T10:16:36;95426.94;;;31.36;39.19
5380;BME280;2713;42.680;23.310;2023-06-22T10:19:05;95431.59;;;31.58;38.58
5380;BME280;2713;42.680;23.310;2023-06-22T10:21:31;95428.19;;;31.66;39.00
5380;BME280;2713;42.680;23.310;2023-06-22T10:23:59;95428.13;;;31.57;38.87
5380;BME280;2713;42.680;23.310;2023-06-22T10:26:33;95433.34;;;31.76;38.99
5380;BME280;2713;42.680;23.310;2023-06-22T10:29:01;95428.81;;;31.49;39.17
5380;BME280;2713;42.680;23.310;2023-06-22T10:31:28;95423.94;;;31.38;40.53
5380;BME280;2713;42.680;23.310;2023-06-22T10:33:55;95419.88;;;31.40;39.70
5380;BME280;2713;42.680;23.310;2023-06-22T10:36:23;95415.47;;;31.31;40.38
5380;BME280;2713;42.680;23.310;2023-06-22T10:38:50;95413.00;;;30.93;41.43
5380;BME280;2713;42.680;23.310;2023-06-22T10:41:18;95412.34;;;31.15;40.58
5380;BME280;2713;42.680;23.310;2023-06-22T10:43:44;95409.50;;;31.47;40.45
5380;BME280;2713;42.680;23.310;2023-06-22T10:46:12;95404.66;;;31.36;38.63
5380;BME280;2713;42.680;23.310;2023-06-22T10:48:39;95408.94;;;31.37;38.98
5380;BME280;2713;42.680;23.310;2023-06-22T10:51:06;95407.72;;;31.56;39.04
5380;BME280;2713;42.680;23.310;2023-06-22T10:53:34;95402.22;;;31.61;38.35
5380;BME280;2713;42.680;23.310;2023-06-22T10:56:00;95406.84;;;31.34;39.88
5380;BME280;2713;42.680;23.310;2023-06-22T10:58:27;95410.03;;;30.81;40.82
5380;BME280;2713;42.680;23.310;2023-06-22T11:00:54;95405.94;;;30.70;40.77
5380;BME280;2713;42.680;23.310;2023-06-22T11:03:21;95409.63;;;30.74;40.87
5380;BME280;2713;42.680;23.310;2023-06-22T11:05:48;95398.56;;;30.89;39.98
5380;BME280;2713;42.680;23.310;2023-06-22T11:08:14;95396.28;;;30.83;39.45
5380;BME280;2713;42.680;23.310;2023-06-22T11:10:43;95400.91;;;31.09;40.65
5380;BME280;2713;42.680;23.310;2023-06-22T11:13:10;95398.88;;;31.29;39.31
5380;BME280;2713;42.680;23.310;2023-06-22T11:15:38;95400.31;;;31.48;40.02
5380;BME280;2713;42.680;23.310;2023-06-22T11:18:05;95388.38;;;31.54;39.32
5380;BME280;2713;42.680;23.310;2023-06-22T11:20:33;95383.63;;;31.51;39.70
5380;BME280;2713;42.680;23.310;2023-06-22T11:23:04;95375.28;;;31.39;39.58
5380;BME280;2713;42.680;23.310;2023-06-22T11:25:31;95383.38;;;31.26;39.09
5380;BME280;2713;42.680;23.310;2023-06-22T11:27:59;95383.16;;;31.36;39.30
5380;BME280;2713;42.680;23.310;2023-06-22T11:30:26;95384.84;;;31.32;39.65
5380;BME280;2713;42.680;23.310;2023-06-22T11:32:52;95378.09;;;31.07;39.95
5380;BME280;2713;42.680;23.310;2023-06-22T11:35:19;95385.16;;;30.76;40.77
5380;BME280;2713;42.680;23.310;2023-06-22T11:37:46;95379.50;;;30.63;40.61
5380;BME280;2713;42.680;23.310;2023-06-22T11:40:13;95382.25;;;30.58;39.78
5380;BME280;2713;42.680;23.310;2023-06-22T11:42:39;95378.28;;;30.56;40.91
5380;BME280;2713;42.680;23.310;2023-06-22T11:45:08;95384.56;;;30.51;42.29
5380;BME280;2713;42.680;23.310;2023-06-22T11:47:35;95372.56;;;30.30;40.72
5380;BME280;2713;42.680;23.310;2023-06-22T11:50:02;95370.06;;;30.20;41.01
5380;BME280;2713;42.680;23.310;2023-06-22T11:52:29;95361.28;;;30.14;39.89
5380;BME280;2713;42.680;23.310;2023-06-22T11:54:55;95366.84;;;30.04;40.19
5380;BME280;2713;42.680;23.310;2023-06-22T11:57:22;95366.03;;;30.04;41.32
5380;BME280;2713;42.680;23.310;2023-06-22T11:59:49;95373.41;;;30.12;42.22
5380;BME280;2713;42.680;23.310;2023-06-22T12:02:17;95380.41;;;30.27;42.11
5380;BME280;2713;42.680;23.310;2023-06-22T12:04:44;95381.31;;;30.36;42.12
5380;BME280;2713;42.680;23.310;2023-06-22T12:07:10;95376.25;;;30.34;42.87
5380;BME280;2713;42.680;23.310;2023-06-22T12:09:37;95374.84;;;30.23;44.27
5380;BME280;2713;42.680;23.310;2023-06-22T12:12:04;95379.44;;;30.04;44.45
5380;BME280;2713;42.680;23.310;2023-06-22T12:14:31;95380.28;;;29.86;44.99
5380;BME280;2713;42.680;23.310;2023-06-22T12:16:58;95385.34;;;29.68;45.68
5380;BME280;2713;42.680;23.310;2023-06-22T12:19:26;95378.28;;;29.59;46.75
5380;BME280;2713;42.680;23.310;2023-06-22T12:21:53;95385.13;;;29.46;48.37
5380;BME280;2713;42.680;23.310;2023-06-22T12:24:20;95385.97;;;29.23;51.88
5380;BME280;2713;42.680;23.310;2023-06-22T12:26:47;95389.94;;;29.07;52.26
5380;BME280;2713;42.680;23.310;2023-06-22T12:29:14;95391.94;;;28.96;52.33
5380;BME280;2713;42.680;23.310;2023-06-22T12:31:40;95397.34;;;28.67;54.75
5380;BME280;2713;42.680;23.310;2023-06-22T12:34:07;95408.84;;;28.39;55.31
5380;BME280;2713;42.680;23.310;2023-06-22T12:36:35;95420.59;;;28.14;55.91
5380;BME280;2713;42.680;23.310;2023-06-22T12:39:02;95411.50;;;27.77;58.36
5380;BME280;2713;42.680;23.310;2023-06-22T12:41:29;95427.41;;;27.53;59.29
5380;BME280;2713;42.680;23.310;2023-06-22T12:43:56;95428.72;;;27.55;60.12
5380;BME280;2713;42.680;23.310;2023-06-22T12:46:22;95424.66;;;27.63;60.78
5380;BME280;2713;42.680;23.310;2023-06-22T12:48:49;95429.78;;;27.59;61.36
5380;BME280;2713;42.680;23.310;2023-06-22T12:51:20;95440.69;;;27.63;60.91
5380;BME280;2713;42.680;23.310;2023-06-22T12:53:49;95460.13;;;27.74;61.34
5380;BME280;2713;42.680;23.310;2023-06-22T12:56:15;95458.03;;;27.70;59.46
5380;BME280;2713;42.680;23.310;2023-06-22T12:58:42;95453.25;;;27.62;59.55
5380;BME280;2713;42.680;23.310;2023-06-22T13:01:09;95451.94;;;27.55;58.82
5380;BME280;2713;42.680;23.310;2023-06-22T13:03:36;95446.13;;;27.48;59.85
5380;BME280;2713;42.680;23.310;2023-06-22T13:06:03;95446.91;;;27.48;61.11
5380;BME280;2713;42.680;23.310;2023-06-22T13:08:29;95447.69;;;27.54;58.76
5380;BME280;2713;42.680;23.310;2023-06-22T13:10:58;95446.84;;;27.63;58.71
5380;BME280;2713;42.680;23.310;2023-06-22T13:13:25;95451.31;;;27.73;59.56
5380;BME280;2713;42.680;23.310;2023-06-22T13:15:52;95450.44;;;27.83;59.70